createdAt,value
2022-11-03T00:02:28.948Z,9.81
2022-11-03T00:07:32.073Z,9.80
2022-11-03T00:12:35.232Z,9.87
2022-11-03T00:17:38.839Z,9.80
2022-11-03T00:22:42.490Z,9.73
2022-11-03T00:27:45.940Z,9.65
2022-11-03T00:32:49.167Z,9.64
2022-11-03T00:37:52.106Z,9.57
2022-11-03T00:42:55.093Z,9.59
2022-11-03T00:48:17.870Z,9.69
2022-11-03T00:53:21.623Z,9.77
2022-11-03T00:58:26.020Z,9.78
2022-11-03T01:03:29.592Z,9.71
2022-11-03T01:08:37.310Z,9.68
2022-11-03T01:13:40.461Z,9.74
2022-11-03T01:18:44.285Z,9.75
2022-11-03T01:23:48.183Z,9.73
2022-11-03T01:28:51.736Z,9.66
2022-11-03T01:33:57.298Z,9.55
2022-11-03T01:39:00.630Z,9.51
2022-11-03T01:44:09.676Z,9.54
2022-11-03T01:49:21.177Z,9.53
2022-11-03T01:54:27.695Z,9.46
2022-11-03T01:59:31.669Z,9.43
2022-11-03T02:04:35.586Z,9.49
2022-11-03T02:09:39.263Z,9.51
2022-11-03T02:15:01.201Z,9.47
2022-11-03T02:20:12.701Z,9.40
2022-11-03T02:25:36.033Z,9.39
2022-11-03T02:31:01.902Z,9.39
2022-11-03T02:36:14.733Z,9.50
2022-11-03T02:41:19.611Z,9.57
2022-11-03T02:46:25.466Z,9.47
2022-11-03T02:51:28.827Z,9.46
2022-11-03T02:56:35.928Z,9.43
2022-11-03T03:01:47.631Z,9.42
2022-11-03T03:06:58.414Z,9.38
2022-11-03T03:12:03.791Z,9.37
2022-11-03T03:17:12.439Z,9.30
2022-11-03T03:22:48.471Z,9.23
2022-11-03T03:27:58.585Z,9.17
2022-11-03T03:33:05.319Z,9.15
2022-11-03T03:38:15.620Z,9.11
2022-11-03T03:43:22.220Z,9.08
2022-11-03T03:48:25.840Z,9.03
2022-11-03T03:53:31.082Z,8.95
2022-11-03T03:58:34.944Z,8.95
2022-11-03T04:03:37.896Z,8.97
2022-11-03T04:08:41.441Z,9.01
2022-11-03T04:14:03.023Z,8.99
2022-11-03T04:19:24.933Z,8.86
2022-11-03T04:24:28.023Z,8.77
2022-11-03T04:29:31.156Z,8.75
2022-11-03T04:34:34.596Z,8.70
2022-11-03T04:39:37.771Z,8.71
2022-11-03T04:44:41.367Z,8.90
2022-11-03T04:49:46.339Z,8.77
2022-11-03T04:54:53.185Z,8.64
2022-11-03T04:59:56.411Z,8.37
2022-11-03T05:04:59.789Z,8.37
2022-11-03T05:10:05.337Z,8.39
2022-11-03T05:15:32.214Z,8.55
2022-11-03T05:20:41.451Z,8.64
2022-11-03T05:25:48.156Z,8.70
2022-11-03T05:30:52.741Z,8.83
2022-11-03T05:36:03.480Z,9.06
2022-11-03T05:41:16.853Z,9.22
2022-11-03T05:46:21.098Z,9.39
2022-11-03T05:51:38.640Z,9.75
2022-11-03T05:56:41.731Z,10.05
2022-11-03T06:01:44.849Z,10.69
2022-11-03T06:06:56.240Z,11.36
2022-11-03T06:12:04.745Z,11.83
2022-11-03T06:17:12.453Z,12.29
2022-11-03T06:22:37.418Z,16.47
2022-11-03T06:27:41.729Z,19.76
2022-11-03T06:32:45.630Z,21.52
2022-11-03T06:37:49.227Z,22.62
2022-11-03T06:42:58.856Z,23.58
2022-11-03T06:48:11.175Z,24.43
2022-11-03T06:53:25.038Z,25.27
2022-11-03T06:58:33.374Z,26.47
2022-11-03T07:03:38.235Z,26.69
2022-11-03T07:08:47.677Z,27.01
2022-11-03T07:14:04.199Z,26.63
2022-11-03T07:19:20.643Z,27.03
2022-11-03T07:24:46.716Z,27.77
2022-11-03T07:29:52.087Z,28.16
2022-11-03T07:35:24.026Z,28.60
2022-11-03T07:40:28.756Z,28.17
2022-11-03T07:45:40.172Z,28.10
2022-11-03T07:50:44.018Z,28.35
2022-11-03T07:55:47.946Z,27.77
2022-11-03T08:00:57.988Z,28.24
2022-11-03T08:06:03.712Z,28.40
2022-11-03T08:11:10.571Z,27.97
2022-11-03T08:16:14.082Z,28.23
2022-11-03T08:21:17.731Z,28.05
2022-11-03T08:26:21.480Z,27.52
2022-11-03T08:31:25.106Z,27.47
2022-11-03T08:36:28.734Z,26.92
2022-11-03T08:41:32.704Z,27.05
2022-11-03T08:46:36.766Z,27.01
2022-11-03T08:51:44.192Z,26.21
2022-11-03T08:56:49.176Z,28.02
2022-11-03T09:01:52.567Z,27.80
2022-11-03T09:06:56.192Z,27.49
2022-11-03T09:11:59.269Z,27.80
2022-11-03T09:22:06.288Z,27.24
2022-11-03T09:27:09.459Z,26.97
2022-11-03T09:32:12.488Z,27.42
2022-11-03T09:37:16.320Z,27.28
2022-11-03T09:42:21.131Z,27.12
2022-11-03T09:47:29.626Z,27.53
2022-11-03T09:52:35.978Z,27.04
2022-11-03T09:57:39.118Z,27.04
2022-11-03T10:02:43.608Z,26.93
2022-11-03T10:07:47.469Z,26.87
2022-11-03T10:12:53.541Z,26.77
2022-11-03T10:17:57.661Z,26.73
2022-11-03T10:23:01.072Z,26.51
2022-11-03T10:28:22.595Z,26.66
2022-11-03T10:33:52.193Z,25.68
2022-11-03T10:38:56.223Z,25.41
2022-11-03T10:44:17.268Z,24.94
2022-11-03T10:49:21.446Z,24.68
2022-11-03T10:54:25.678Z,24.62
2022-11-03T10:59:34.894Z,24.60
2022-11-03T11:04:38.676Z,24.77
2022-11-03T11:09:42.254Z,24.40
2022-11-03T11:15:30.543Z,24.57
2022-11-03T11:20:36.763Z,24.70
2022-11-03T11:26:11.607Z,25.02
2022-11-03T11:31:27.145Z,25.04
2022-11-03T11:36:30.243Z,25.41
2022-11-03T11:42:04.549Z,25.25
2022-11-03T11:47:43.216Z,25.40
2022-11-03T11:52:51.755Z,25.56
2022-11-03T11:57:55.982Z,25.88
2022-11-03T12:03:01.635Z,25.94
2022-11-03T12:08:21.418Z,26.18
2022-11-03T12:13:43.215Z,26.35
2022-11-03T12:18:50.555Z,26.38
2022-11-03T12:23:54.266Z,26.41
2022-11-03T12:28:57.916Z,26.47
2022-11-03T12:34:01.124Z,26.47
2022-11-03T12:39:04.118Z,25.90
2022-11-03T12:44:07.309Z,26.12
2022-11-03T12:49:10.389Z,26.23
2022-11-03T12:54:13.381Z,26.36
2022-11-03T12:59:16.371Z,26.21
2022-11-03T13:04:19.347Z,26.42
2022-11-03T13:09:22.370Z,26.49
2022-11-03T13:14:27.400Z,26.58
2022-11-03T13:19:30.424Z,25.84
2022-11-03T13:24:33.589Z,25.66
2022-11-03T13:29:36.596Z,25.75
2022-11-03T13:34:39.693Z,26.09
2022-11-03T13:39:42.763Z,25.91
2022-11-03T13:44:46.028Z,25.89
2022-11-03T13:50:13.179Z,25.59
2022-11-03T14:00:39.243Z,25.42
2022-11-03T14:05:42.214Z,25.39
2022-11-03T14:10:45.242Z,25.54
2022-11-03T14:15:48.269Z,25.03
2022-11-03T14:20:51.175Z,25.01
2022-11-03T14:26:06.216Z,24.60
2022-11-03T14:31:17.143Z,24.60
2022-11-03T14:36:20.116Z,24.35
2022-11-03T14:41:41.775Z,23.83
2022-11-03T14:46:45.022Z,23.34
2022-11-03T14:51:47.998Z,22.80
2022-11-03T14:56:51.087Z,22.87
2022-11-03T15:01:55.161Z,21.64
2022-11-03T15:06:58.395Z,20.77
2022-11-03T15:12:03.742Z,20.10
2022-11-03T15:17:06.627Z,19.68
2022-11-03T15:22:09.714Z,19.44
2022-11-03T15:27:12.769Z,19.31
2022-11-03T15:32:15.642Z,19.07
2022-11-03T15:37:18.597Z,18.59
2022-11-03T15:42:21.660Z,18.23
2022-11-03T15:47:25.301Z,17.56
2022-11-03T15:52:28.828Z,17.30
2022-11-03T15:57:32.368Z,17.40
2022-11-03T16:02:41.511Z,17.17
2022-11-03T16:07:45.361Z,16.93
2022-11-03T16:12:48.755Z,16.85
2022-11-03T16:17:51.805Z,16.70
2022-11-03T16:22:54.967Z,16.36
2022-11-03T16:27:58.214Z,16.23
2022-11-03T16:33:01.823Z,16.22
2022-11-03T16:38:06.930Z,16.01
2022-11-03T16:43:11.211Z,15.82
2022-11-03T16:48:15.290Z,15.78
2022-11-03T16:53:18.520Z,15.57
2022-11-03T16:58:23.326Z,15.46
2022-11-03T17:03:27.234Z,15.50
2022-11-03T17:08:58.901Z,15.29
2022-11-03T17:13:53.624Z,15.22
2022-11-03T17:18:58.809Z,15.11
2022-11-03T17:24:02.122Z,14.96
2022-11-03T17:29:05.335Z,14.75
2022-11-03T17:34:15.290Z,14.72
2022-11-03T17:44:30.035Z,14.47
2022-11-03T17:49:33.898Z,14.43
2022-11-03T17:54:39.187Z,14.35
2022-11-03T17:59:48.854Z,14.21
2022-11-03T18:04:58.320Z,13.97
2022-11-03T18:10:02.529Z,13.94
2022-11-03T18:15:12.683Z,13.86
2022-11-03T18:20:27.614Z,13.99
2022-11-03T18:25:33.281Z,13.80
2022-11-03T18:30:39.489Z,13.64
2022-11-03T18:35:42.930Z,13.58
2022-11-03T18:40:46.980Z,13.37
2022-11-03T18:45:54.385Z,13.11
2022-11-03T18:51:00.092Z,13.26
2022-11-03T18:56:04.021Z,13.19
2022-11-03T19:01:07.975Z,12.77
2022-11-03T19:06:11.793Z,12.50
2022-11-03T19:11:15.970Z,12.19
2022-11-03T19:16:24.703Z,12.00
2022-11-03T19:21:28.977Z,11.81
2022-11-03T19:26:40.966Z,11.67
2022-11-03T19:31:49.229Z,11.48
2022-11-03T19:36:54.664Z,11.23
2022-11-03T19:42:27.951Z,10.99
2022-11-03T19:47:39.785Z,10.82
2022-11-03T19:52:45.809Z,10.81
2022-11-03T19:57:49.640Z,10.68
2022-11-03T20:02:53.577Z,10.59
2022-11-03T20:08:02.153Z,10.53
2022-11-03T20:13:08.730Z,10.51
2022-11-03T20:18:14.093Z,10.51
2022-11-03T20:23:24.888Z,10.58
2022-11-03T20:28:31.398Z,10.64
2022-11-03T20:33:36.408Z,10.57
2022-11-03T20:38:40.451Z,10.34
2022-11-03T20:43:47.910Z,10.20
2022-11-03T20:48:51.886Z,10.07
2022-11-03T20:53:56.209Z,9.96
2022-11-03T20:59:00.155Z,9.89
2022-11-03T21:04:05.188Z,9.79
2022-11-03T21:09:18.437Z,9.74
2022-11-03T21:14:28.044Z,9.64
2022-11-03T21:19:52.926Z,9.54
2022-11-03T21:24:57.266Z,9.50
2022-11-03T21:30:01.086Z,9.42
2022-11-03T21:35:06.918Z,9.36
2022-11-03T21:40:11.432Z,9.42
2022-11-03T21:45:15.121Z,9.48
2022-11-03T21:50:18.744Z,9.50
2022-11-03T21:55:22.030Z,9.54
2022-11-03T22:00:25.578Z,9.44
2022-11-03T22:05:29.889Z,9.45
2022-11-03T22:10:33.918Z,9.41
2022-11-03T22:15:56.024Z,9.37
2022-11-03T22:21:17.984Z,9.28
2022-11-03T22:26:40.228Z,9.27
2022-11-03T22:31:43.688Z,9.24
2022-11-03T22:36:46.765Z,9.18
2022-11-03T22:42:08.429Z,9.12
2022-11-03T22:47:14.472Z,9.06
2022-11-03T22:52:21.537Z,9.02
2022-11-03T22:57:26.693Z,9.02
2022-11-03T23:02:30.685Z,9.00
2022-11-03T23:07:41.091Z,8.92
2022-11-03T23:12:44.313Z,8.87
2022-11-03T23:18:06.280Z,8.84
2022-11-03T23:23:33.824Z,8.79
2022-11-03T23:28:38.273Z,8.68
2022-11-03T23:33:42.904Z,8.64
2022-11-03T23:38:46.847Z,8.48
2022-11-03T23:43:50.972Z,8.54
2022-11-03T23:48:55.638Z,8.51
2022-11-03T23:54:01.355Z,8.42
2022-11-03T23:59:07.679Z,8.44
